sensor_id;sensor_type;location;lat;lon;timestamp;pressure;altitude;pressure_sealevel;temperature;humidity
7335;BME280;3708;42.632;23.378;2023-07-22T00:00:43;94282.25;;;28.62;38.02
7335;BME280;3708;42.632;23.378;2023-07-22T00:03:11;94288.22;;;28.57;38.11
7335;BME280;3708;42.632;23.378;2023-07-22T00:05:39;94296.88;;;28.23;38.13
7335;BME280;3708;42.632;23.378;2023-07-22T00:08:06;94306.34;;;28.03;38.89
7335;BME280;3708;42.632;23.378;2023-07-22T00:10:34;94298.78;;;27.98;38.78
7335;BME280;3708;42.632;23.378;2023-07-22T00:13:01;94293.47;;;28.23;38.33
7335;BME280;3708;42.632;23.378;2023-07-22T00:15:28;94298.66;;;28.55;37.95
7335;BME280;3708;42.632;23.378;2023-07-22T00:17:55;94302.31;;;28.61;37.28
7335;BME280;3708;42.632;23.378;2023-07-22T00:20:22;94305.72;;;28.24;37.99
7335;BME280;3708;42.632;23.378;2023-07-22T00:22:52;94306.91;;;27.81;38.78
7335;BME280;3708;42.632;23.378;2023-07-22T00:25:19;94313.66;;;27.73;38.86
7335;BME280;3708;42.632;23.378;2023-07-22T00:27:49;94311.69;;;27.90;38.71
7335;BME280;3708;42.632;23.378;2023-07-22T00:30:16;94314.31;;;28.19;38.09
7335;BME280;3708;42.632;23.378;2023-07-22T00:32:42;94319.63;;;28.22;38.02
7335;BME280;3708;42.632;23.378;2023-07-22T00:35:09;94318.03;;;28.25;38.06
7335;BME280;3708;42.632;23.378;2023-07-22T00:37:36;94313.16;;;28.32;37.93
7335;BME280;3708;42.632;23.378;2023-07-22T00:40:03;94322.78;;;28.46;37.78
7335;BME280;3708;42.632;23.378;2023-07-22T00:42:37;94319.00;;;28.43;37.76
7335;BME280;3708;42.632;23.378;2023-07-22T00:45:06;94318.25;;;28.43;37.81
7335;BME280;3708;42.632;23.378;2023-07-22T00:47:34;94321.53;;;27.80;39.02
7335;BME280;3708;42.632;23.378;2023-07-22T00:50:02;94316.06;;;28.13;38.39
7335;BME280;3708;42.632;23.378;2023-07-22T00:52:29;94322.78;;;27.63;39.43
7335;BME280;3708;42.632;23.378;2023-07-22T00:54:56;94325.53;;;27.15;40.57
7335;BME280;3708;42.632;23.378;2023-07-22T00:57:23;94320.19;;;27.60;39.83
7335;BME280;3708;42.632;23.378;2023-07-22T00:59:50;94325.91;;;27.90;39.51
7335;BME280;3708;42.632;23.378;2023-07-22T01:02:19;94328.22;;;28.05;39.03
7335;BME280;3708;42.632;23.378;2023-07-22T01:04:46;94322.44;;;27.16;40.79
7335;BME280;3708;42.632;23.378;2023-07-22T01:07:13;94327.00;;;27.64;39.98
7335;BME280;3708;42.632;23.378;2023-07-22T01:09:43;94319.63;;;27.93;39.58
7335;BME280;3708;42.632;23.378;2023-07-22T01:12:10;94315.88;;;27.91;39.77
7335;BME280;3708;42.632;23.378;2023-07-22T01:14:41;94302.88;;;28.02;39.67
7335;BME280;3708;42.632;23.378;2023-07-22T01:17:09;94303.66;;;28.03;40.66
7335;BME280;3708;42.632;23.378;2023-07-22T01:19:37;94301.88;;;27.96;41.12
7335;BME280;3708;42.632;23.378;2023-07-22T01:22:06;94293.84;;;27.67;42.12
7335;BME280;3708;42.632;23.378;2023-07-22T01:24:35;94297.06;;;27.62;42.56
7335;BME280;3708;42.632;23.378;2023-07-22T01:27:02;94291.69;;;27.62;42.68
7335;BME280;3708;42.632;23.378;2023-07-22T01:29:34;94303.66;;;27.45;43.31
7335;BME280;3708;42.632;23.378;2023-07-22T01:32:01;94293.69;;;27.58;43.14
7335;BME280;3708;42.632;23.378;2023-07-22T01:34:27;94294.91;;;27.41;43.87
7335;BME280;3708;42.632;23.378;2023-07-22T01:36:55;94284.19;;;27.25;44.13
7335;BME280;3708;42.632;23.378;2023-07-22T01:39:22;94291.44;;;26.96;44.61
7335;BME280;3708;42.632;23.378;2023-07-22T01:41:50;94278.31;;;26.98;44.86
7335;BME280;3708;42.632;23.378;2023-07-22T01:44:17;94275.63;;;27.14;44.77
7335;BME280;3708;42.632;23.378;2023-07-22T01:46:44;94278.22;;;27.17;44.59
7335;BME280;3708;42.632;23.378;2023-07-22T01:49:12;94288.06;;;27.08;44.75
7335;BME280;3708;42.632;23.378;2023-07-22T01:51:39;94280.28;;;27.26;44.25
7335;BME280;3708;42.632;23.378;2023-07-22T01:54:06;94280.63;;;27.28;44.39
7335;BME280;3708;42.632;23.378;2023-07-22T01:56:34;94272.16;;;27.30;44.57
7335;BME280;3708;42.632;23.378;2023-07-22T01:59:02;94274.50;;;27.28;44.70
7335;BME280;3708;42.632;23.378;2023-07-22T02:01:29;94280.56;;;27.32;44.59
7335;BME280;3708;42.632;23.378;2023-07-22T02:03:56;94279.13;;;27.27;45.02
7335;BME280;3708;42.632;23.378;2023-07-22T02:06:23;94270.63;;;27.29;45.04
7335;BME280;3708;42.632;23.378;2023-07-22T02:08:50;94259.00;;;27.19;45.47
7335;BME280;3708;42.632;23.378;2023-07-22T02:11:17;94262.41;;;27.19;45.60
7335;BME280;3708;42.632;23.378;2023-07-22T02:13:44;94273.53;;;27.22;45.87
7335;BME280;3708;42.632;23.378;2023-07-22T02:16:12;94269.72;;;27.35;45.36
7335;BME280;3708;42.632;23.378;2023-07-22T02:18:39;94282.81;;;27.33;45.19
7335;BME280;3708;42.632;23.378;2023-07-22T02:21:06;94277.56;;;27.13;45.40
7335;BME280;3708;42.632;23.378;2023-07-22T02:23:32;94279.13;;;27.27;45.16
7335;BME280;3708;42.632;23.378;2023-07-22T02:25:59;94288.19;;;27.33;45.20
7335;BME280;3708;42.632;23.378;2023-07-22T02:28:27;94288.94;;;27.34;44.93
7335;BME280;3708;42.632;23.378;2023-07-22T02:30:54;94286.00;;;27.28;44.99
7335;BME280;3708;42.632;23.378;2023-07-22T02:33:22;94286.00;;;27.28;45.09
7335;BME280;3708;42.632;23.378;2023-07-22T02:35:49;94293.13;;;27.35;45.16
7335;BME280;3708;42.632;23.378;2023-07-22T02:38:16;94292.59;;;27.11;45.76
7335;BME280;3708;42.632;23.378;2023-07-22T02:40:43;94293.28;;;27.15;45.68
7335;BME280;3708;42.632;23.378;2023-07-22T02:43:10;94289.06;;;26.98;46.24
7335;BME280;3708;42.632;23.378;2023-07-22T02:45:37;94285.81;;;26.90;46.42
7335;BME280;3708;42.632;23.378;2023-07-22T02:48:04;94291.44;;;26.96;46.16
7335;BME280;3708;42.632;23.378;2023-07-22T02:50:32;94284.38;;;26.86;46.43
7335;BME280;3708;42.632;23.378;2023-07-22T02:52:59;94292.28;;;26.93;46.56
7335;BME280;3708;42.632;23.378;2023-07-22T02:55:26;94286.06;;;26.80;46.84
7335;BME280;3708;42.632;23.378;2023-07-22T02:57:54;94286.25;;;26.89;46.78
7335;BME280;3708;42.632;23.378;2023-07-22T03:00:20;94285.06;;;26.74;47.21
7335;BME280;3708;42.632;23.378;2023-07-22T03:02:50;94290.81;;;26.72;47.31
7335;BME280;3708;42.632;23.378;2023-07-22T03:05:19;94294.38;;;26.69;47.34
7335;BME280;3708;42.632;23.378;2023-07-22T03:07:48;94295.56;;;26.84;46.67
7335;BME280;3708;42.632;23.378;2023-07-22T03:10:15;94288.50;;;26.90;46.33
7335;BME280;3708;42.632;23.378;2023-07-22T03:12:42;94295.66;;;26.97;45.33
7335;BME280;3708;42.632;23.378;2023-07-22T03:15:09;94295.31;;;26.95;45.20
7335;BME280;3708;42.632;23.378;2023-07-22T03:17:38;94302.69;;;27.07;44.46
7335;BME280;3708;42.632;23.378;2023-07-22T03:20:08;94287.31;;;27.24;43.55
7335;BME280;3708;42.632;23.378;2023-07-22T03:22:39;94300.81;;;27.20;43.38
7335;BME280;3708;42.632;23.378;2023-07-22T03:25:08;94297.19;;;27.27;44.14
7335;BME280;3708;42.632;23.378;2023-07-22T03:27:36;94288.47;;;27.23;44.44
7335;BME280;3708;42.632;23.378;2023-07-22T03:30:03;94298.47;;;27.38;44.38
7335;BME280;3708;42.632;23.378;2023-07-22T03:32:32;94299.69;;;27.50;44.41
7335;BME280;3708;42.632;23.378;2023-07-22T03:34:59;94303.13;;;27.50;44.14
7335;BME280;3708;42.632;23.378;2023-07-22T03:37:27;94298.19;;;27.49;43.97
7335;BME280;3708;42.632;23.378;2023-07-22T03:39:54;94303.72;;;27.58;42.95
7335;BME280;3708;42.632;23.378;2023-07-22T03:42:22;94317.84;;;27.46;43.22
7335;BME280;3708;42.632;23.378;2023-07-22T03:44:49;94321.47;;;27.55;42.90
7335;BME280;3708;42.632;23.378;2023-07-22T03:47:15;94330.41;;;27.20;43.87
7335;BME280;3708;42.632;23.378;2023-07-22T03:49:42;94325.59;;;26.27;45.32
7335;BME280;3708;42.632;23.378;2023-07-22T03:52:09;94341.50;;;26.18;45.64
7335;BME280;3708;42.632;23.378;2023-07-22T03:54:39;94339.16;;;26.20;46.09
7335;BME280;3708;42.632;23.378;2023-07-22T03:57:06;94340.63;;;25.43;48.06
7335;BME280;3708;42.632;23.378;2023-07-22T03:59:34;94341.53;;;25.79;47.21
7335;BME280;3708;42.632;23.378;2023-07-22T04:02:02;94338.63;;;25.90;47.12
7335;BME280;3708;42.632;23.378;2023-07-22T04:04:29;94338.75;;;25.63;47.66
7335;BME280;3708;42.632;23.378;2023-07-22T04:06:56;94350.00;;;24.85;49.45
7335;BME280;3708;42.632;23.378;2023-07-22T04:09:22;94343.34;;;24.43;50.65
7335;BME280;3708;42.632;23.378;2023-07-22T04:11:49;94350.78;;;25.32;49.22
7335;BME280;3708;42.632;23.378;2023-07-22T04:14:16;94339.22;;;25.35;49.14
7335;BME280;3708;42.632;23.378;2023-07-22T04:16:45;94335.63;;;25.45;49.02
7335;BME280;3708;42.632;23.378;2023-07-22T04:19:11;94335.66;;;25.84;47.63
7335;BME280;3708;42.632;23.378;2023-07-22T04:21:38;94338.19;;;25.52;48.29
7335;BME280;3708;42.632;23.378;2023-07-22T04:24:05;94339.91;;;26.01;47.33
7335;BME280;3708;42.632;23.378;2023-07-22T04:26:32;94340.97;;;25.68;47.78
7335;BME280;3708;42.632;23.378;2023-07-22T04:28:59;94352.38;;;25.72;48.21
7335;BME280;3708;42.632;23.378;2023-07-22T04:31:26;94347.72;;;25.76;48.36
7335;BME280;3708;42.632;23.378;2023-07-22T04:33:54;94358.75;;;25.58;48.49
7335;BME280;3708;42.632;23.378;2023-07-22T04:36:21;94359.13;;;25.80;48.01
7335;BME280;3708;42.632;23.378;2023-07-22T04:38:48;94349.63;;;26.34;46.79
7335;BME280;3708;42.632;23.378;2023-07-22T04:41:15;94356.38;;;25.64;48.75
7335;BME280;3708;42.632;23.378;2023-07-22T04:43:41;94359.47;;;25.82;48.11
7335;BME280;3708;42.632;23.378;2023-07-22T04:46:08;94359.16;;;26.19;47.55
7335;BME280;3708;42.632;23.378;2023-07-22T04:48:35;94362.69;;;26.68;46.43
7335;BME280;3708;42.632;23.378;2023-07-22T04:51:03;94356.63;;;26.84;46.15
7335;BME280;3708;42.632;23.378;2023-07-22T04:53:30;94364.00;;;26.96;45.20
7335;BME280;3708;42.632;23.378;2023-07-22T04:55:57;94361.59;;;26.66;46.30
7335;BME280;3708;42.632;23.378;2023-07-22T04:58:24;94354.97;;;26.70;46.00
7335;BME280;3708;42.632;23.378;2023-07-22T05:00:51;94356.75;;;26.61;46.71
7335;BME280;3708;42.632;23.378;2023-07-22T05:03:18;94359.47;;;27.25;45.29
7335;BME280;3708;42.632;23.378;2023-07-22T05:05:45;94356.44;;;27.39;44.96
7335;BME280;3708;42.632;23.378;2023-07-22T05:08:13;94359.81;;;27.27;45.01
7335;BME280;3708;42.632;23.378;2023-07-22T05:10:40;94372.94;;;26.93;46.08
7335;BME280;3708;42.632;23.378;2023-07-22T05:13:07;94371.56;;;27.01;45.64
7335;BME280;3708;42.632;23.378;2023-07-22T05:15:34;94369.59;;;26.69;46.33
7335;BME280;3708;42.632;23.378;2023-07-22T05:18:01;94378.13;;;26.84;45.97
7335;BME280;3708;42.632;23.378;2023-07-22T05:20:27;94382.94;;;26.57;46.67
7335;BME280;3708;42.632;23.378;2023-07-22T05:22:55;94379.72;;;26.26;47.36
7335;BME280;3708;42.632;23.378;2023-07-22T05:25:23;94380.53;;;26.03;48.01
7335;BME280;3708;42.632;23.378;2023-07-22T05:27:50;94373.66;;;26.41;47.30
7335;BME280;3708;42.632;23.378;2023-07-22T05:30:17;94385.13;;;26.42;47.57
7335;BME280;3708;42.632;23.378;2023-07-22T05:32:44;94372.69;;;26.68;46.97
7335;BME280;3708;42.632;23.378;2023-07-22T05:35:11;94381.16;;;27.02;46.48
7335;BME280;3708;42.632;23.378;2023-07-22T05:37:38;94385.94;;;26.59;47.41
7335;BME280;3708;42.632;23.378;2023-07-22T05:40:06;94379.06;;;26.58;47.74
7335;BME280;3708;42.632;23.378;2023-07-22T05:42:35;94369.38;;;26.80;46.96
7335;BME280;3708;42.632;23.378;2023-07-22T05:45:03;94374.34;;;26.97;46.78
7335;BME280;3708;42.632;23.378;2023-07-22T05:47:29;94385.00;;;27.65;44.96
7335;BME280;3708;42.632;23.378;2023-07-22T05:49:56;94380.41;;;27.34;45.61
7335;BME280;3708;42.632;23.378;2023-07-22T05:52:23;94385.03;;;27.01;46.78
7335;BME280;3708;42.632;23.378;2023-07-22T05:54:50;94390.09;;;27.15;46.31
7335;BME280;3708;42.632;23.378;2023-07-22T05:57:17;94390.56;;;27.58;45.36
7335;BME280;3708;42.632;23.378;2023-07-22T05:59:45;94390.31;;;27.98;44.59
7335;BME280;3708;42.632;23.378;2023-07-22T06:02:13;94394.47;;;28.15;44.21
7335;BME280;3708;42.632;23.378;2023-07-22T06:04:40;94382.78;;;28.34;43.77
7335;BME280;3708;42.632;23.378;2023-07-22T06:07:07;94381.25;;;28.74;42.78
7335;BME280;3708;42.632;23.378;2023-07-22T06:09:34;94390.41;;;29.02;42.71
7335;BME280;3708;42.632;23.378;2023-07-22T06:12:00;94403.13;;;28.76;43.19
7335;BME280;3708;42.632;23.378;2023-07-22T06:14:27;94412.22;;;28.41;43.86
7335;BME280;3708;42.632;23.378;2023-07-22T06:16:55;94412.53;;;28.43;43.53
7335;BME280;3708;42.632;23.378;2023-07-22T06:19:22;94413.94;;;28.35;43.93
7335;BME280;3708;42.632;23.378;2023-07-22T06:21:49;94423.75;;;28.95;42.88
7335;BME280;3708;42.632;23.378;2023-07-22T06:24:16;94427.50;;;29.10;42.48
7335;BME280;3708;42.632;23.378;2023-07-22T06:26:43;94423.41;;;28.27;43.21
7335;BME280;3708;42.632;23.378;2023-07-22T06:29:10;94431.72;;;28.86;42.81
7335;BME280;3708;42.632;23.378;2023-07-22T06:31:37;94434.28;;;28.64;42.81
7335;BME280;3708;42.632;23.378;2023-07-22T06:34:05;94437.97;;;28.42;43.87
7335;BME280;3708;42.632;23.378;2023-07-22T06:36:32;94434.31;;;29.02;42.66
7335;BME280;3708;42.632;23.378;2023-07-22T06:38:58;94430.53;;;28.75;42.69
7335;BME280;3708;42.632;23.378;2023-07-22T06:41:25;94432.16;;;28.97;42.91
7335;BME280;3708;42.632;23.378;2023-07-22T06:43:52;94431.19;;;29.42;41.90
7335;BME280;3708;42.632;23.378;2023-07-22T06:46:19;94434.91;;;29.69;41.21
7335;BME280;3708;42.632;23.378;2023-07-22T06:48:47;94433.94;;;29.63;41.88
7335;BME280;3708;42.632;23.378;2023-07-22T06:51:15;94438.25;;;29.86;41.55
7335;BME280;3708;42.632;23.378;2023-07-22T06:53:42;94427.84;;;29.97;40.63
7335;BME280;3708;42.632;23.378;2023-07-22T06:56:09;94430.19;;;29.61;41.24
7335;BME280;3708;42.632;23.378;2023-07-22T06:58:35;94430.94;;;30.08;40.84
7335;BME280;3708;42.632;23.378;2023-07-22T07:01:02;94431.84;;;30.48;39.80
7335;BME280;3708;42.632;23.378;2023-07-22T07:03:29;94428.25;;;30.82;39.44
7335;BME280;3708;42.632;23.378;2023-07-22T07:05:56;94423.75;;;31.10;38.90
7335;BME280;3708;42.632;23.378;2023-07-22T07:08:25;94413.81;;;31.55;38.54
7335;BME280;3708;42.632;23.378;2023-07-22T07:10:52;94414.53;;;31.96;37.75
7335;BME280;3708;42.632;23.378;2023-07-22T07:13:18;94428.50;;;32.21;36.80
7335;BME280;3708;42.632;23.378;2023-07-22T07:15:46;94423.09;;;32.21;36.62
7335;BME280;3708;42.632;23.378;2023-07-22T07:18:15;94418.88;;;32.48;36.48
7335;BME280;3708;42.632;23.378;2023-07-22T07:20:42;94430.09;;;32.82;36.10
7335;BME280;3708;42.632;23.378;2023-07-22T07:23:09;94418.84;;;33.17;35.77
7335;BME280;3708;42.632;23.378;2023-07-22T07:25:37;94416.59;;;33.39;35.38
7335;BME280;3708;42.632;23.378;2023-07-22T07:28:04;94416.06;;;33.58;34.90
7335;BME280;3708;42.632;23.378;2023-07-22T07:30:31;94410.22;;;33.74;34.61
7335;BME280;3708;42.632;23.378;2023-07-22T07:32:58;94403.72;;;33.96;34.58
7335;BME280;3708;42.632;23.378;2023-07-22T07:35:25;94401.66;;;33.91;34.25
7335;BME280;3708;42.632;23.378;2023-07-22T07:37:52;94399.69;;;34.15;34.19
7335;BME280;3708;42.632;23.378;2023-07-22T07:40:19;94398.06;;;34.08;33.69
7335;BME280;3708;42.632;23.378;2023-07-22T07:42:47;94403.72;;;33.96;33.97
7335;BME280;3708;42.632;23.378;2023-07-22T07:45:14;94396.81;;;34.33;33.67
7335;BME280;3708;42.632;23.378;2023-07-22T07:47:41;94402.31;;;33.86;34.36
7335;BME280;3708;42.632;23.378;2023-07-22T07:50:08;94402.34;;;34.00;33.59
7335;BME280;3708;42.632;23.378;2023-07-22T07:52:35;94403.69;;;34.05;33.88
7335;BME280;3708;42.632;23.378;2023-07-22T07:55:05;94399.91;;;33.64;34.46
7335;BME280;3708;42.632;23.378;2023-07-22T07:57:31;94398.34;;;33.87;34.29
7335;BME280;3708;42.632;23.378;2023-07-22T08:00:00;94393.88;;;34.07;34.59
7335;BME280;3708;42.632;23.378;2023-07-22T08:02:27;94401.56;;;34.38;33.62
7335;BME280;3708;42.632;23.378;2023-07-22T08:04:53;94392.06;;;34.57;34.08
7335;BME280;3708;42.632;23.378;2023-07-22T08:07:20;94388.66;;;34.47;33.42
7335;BME280;3708;42.632;23.378;2023-07-22T08:09:47;94387.06;;;34.70;33.00
7335;BME280;3708;42.632;23.378;2023-07-22T08:12:15;94395.13;;;34.79;32.18
7335;BME280;3708;42.632;23.378;2023-07-22T08:14:42;94395.13;;;34.79;32.19
7335;BME280;3708;42.632;23.378;2023-07-22T08:17:10;94398.41;;;34.83;32.07
7335;BME280;3708;42.632;23.378;2023-07-22T08:19:37;94393.69;;;34.98;32.18
7335;BME280;3708;42.632;23.378;2023-07-22T08:22:04;94396.44;;;34.84;32.45
7335;BME280;3708;42.632;23.378;2023-07-22T08:24:31;94395.22;;;34.85;32.60
7335;BME280;3708;42.632;23.378;2023-07-22T08:26:58;94386.06;;;34.68;32.81
7335;BME280;3708;42.632;23.378;2023-07-22T08:29:25;94376.44;;;34.14;33.58
7335;BME280;3708;42.632;23.378;2023-07-22T08:31:52;94378.50;;;34.33;33.29
7335;BME280;3708;42.632;23.378;2023-07-22T08:34:20;94374.78;;;34.60;32.93
7335;BME280;3708;42.632;23.378;2023-07-22T08:36:46;94386.03;;;34.53;33.21
7335;BME280;3708;42.632;23.378;2023-07-22T08:39:14;94380.97;;;34.46;33.56
7335;BME280;3708;42.632;23.378;2023-07-22T08:41:47;94374.97;;;34.57;33.66
7335;BME280;3708;42.632;23.378;2023-07-22T08:44:19;94374.50;;;34.87;33.24
7335;BME280;3708;42.632;23.378;2023-07-22T08:46:46;94370.63;;;35.28;32.54
7335;BME280;3708;42.632;23.378;2023-07-22T08:49:15;94362.63;;;35.40;32.44
7335;BME280;3708;42.632;23.378;2023-07-22T08:51:44;94359.59;;;35.72;31.54
7335;BME280;3708;42.632;23.378;2023-07-22T08:54:13;94356.09;;;35.92;31.46
7335;BME280;3708;42.632;23.378;2023-07-22T08:56:41;94345.47;;;35.94;31.55
7335;BME280;3708;42.632;23.378;2023-07-22T08:59:09;94339.03;;;36.17;31.47
7335;BME280;3708;42.632;23.378;2023-07-22T09:01:37;94331.94;;;36.25;31.08
7335;BME280;3708;42.632;23.378;2023-07-22T09:04:05;94335.72;;;36.33;30.84
7335;BME280;3708;42.632;23.378;2023-07-22T09:06:32;94334.19;;;36.52;30.44
7335;BME280;3708;42.632;23.378;2023-07-22T09:09:01;94340.28;;;36.73;30.25
7335;BME280;3708;42.632;23.378;2023-07-22T09:11:33;94338.75;;;36.66;30.60
7335;BME280;3708;42.632;23.378;2023-07-22T09:14:02;94339.72;;;36.63;30.49
7335;BME280;3708;42.632;23.378;2023-07-22T09:16:30;94335.50;;;36.37;30.41
7335;BME280;3708;42.632;23.378;2023-07-22T09:18:58;94332.66;;;36.26;30.59
7335;BME280;3708;42.632;23.378;2023-07-22T09:21:25;94333.75;;;36.59;30.20
7335;BME280;3708;42.632;23.378;2023-07-22T09:23:53;94336.75;;;36.61;30.59
7335;BME280;3708;42.632;23.378;2023-07-22T09:26:21;94327.53;;;36.33;30.98
7335;BME280;3708;42.632;23.378;2023-07-22T09:28:52;94326.81;;;36.38;30.72
7335;BME280;3708;42.632;23.378;2023-07-22T09:31:20;94328.19;;;36.48;30.63
7335;BME280;3708;42.632;23.378;2023-07-22T09:33:47;94327.66;;;36.76;30.84
7335;BME280;3708;42.632;23.378;2023-07-22T09:36:14;94327.31;;;36.94;30.57
7335;BME280;3708;42.632;23.378;2023-07-22T09:38:41;94328.25;;;37.22;29.96
7335;BME280;3708;42.632;23.378;2023-07-22T09:41:08;94328.66;;;36.78;29.92
7335;BME280;3708;42.632;23.378;2023-07-22T09:43:39;94327.44;;;36.48;30.06
7335;BME280;3708;42.632;23.378;2023-07-22T09:46:07;94322.09;;;36.59;29.92
7335;BME280;3708;42.632;23.378;2023-07-22T09:48:42;94320.22;;;37.07;29.36
7335;BME280;3708;42.632;23.378;2023-07-22T09:51:13;94313.78;;;37.64;29.16
7335;BME280;3708;42.632;23.378;2023-07-22T09:53:45;94307.66;;;37.85;29.08
7335;BME280;3708;42.632;23.378;2023-07-22T09:56:12;94298.78;;;38.01;28.40
7335;BME280;3708;42.632;23.378;2023-07-22T09:58:40;94306.00;;;38.21;29.17
7335;BME280;3708;42.632;23.378;2023-07-22T10:01:07;94307.03;;;38.35;28.30
7335;BME280;3708;42.632;23.378;2023-07-22T10:03:39;94300.06;;;38.50;28.21
7335;BME280;3708;42.632;23.378;2023-07-22T10:06:07;94298.81;;;38.46;27.84
7335;BME280;3708;42.632;23.378;2023-07-22T10:08:35;94304.81;;;38.55;27.36
7335;BME280;3708;42.632;23.378;2023-07-22T10:11:05;94304.31;;;38.68;26.78
7335;BME280;3708;42.632;23.378;2023-07-22T10:13:36;94300.09;;;38.28;27.13
7335;BME280;3708;42.632;23.378;2023-07-22T10:16:05;94298.34;;;38.53;26.77
7335;BME280;3708;42.632;23.378;2023-07-22T10:18:34;94298.06;;;38.29;26.79
7335;BME280;3708;42.632;23.378;2023-07-22T10:21:02;94299.34;;;38.39;26.63
7335;BME280;3708;42.632;23.378;2023-07-22T10:23:31;94306.31;;;38.84;26.63
7335;BME280;3708;42.632;23.378;2023-07-22T10:25:59;94301.53;;;39.07;26.45
7335;BME280;3708;42.632;23.378;2023-07-22T10:28:26;94302.28;;;39.02;26.48
7335;BME280;3708;42.632;23.378;2023-07-22T10:30:53;94297.28;;;39.22;25.81
7335;BME280;3708;42.632;23.378;2023-07-22T10:33:21;94297.31;;;39.00;26.21
7335;BME280;3708;42.632;23.378;2023-07-22T10:36:03;94289.44;;;39.54;26.34
7335;BME280;3708;42.632;23.378;2023-07-22T10:38:31;94292.94;;;39.54;26.19
7335;BME280;3708;42.632;23.378;2023-07-22T10:40:58;94288.44;;;39.51;24.61
7335;BME280;3708;42.632;23.378;2023-07-22T10:43:26;94282.72;;;39.60;24.17
7335;BME280;3708;42.632;23.378;2023-07-22T10:45:54;94283.19;;;39.65;23.43
7335;BME280;3708;42.632;23.378;2023-07-22T10:48:25;94281.66;;;39.69;23.56
7335;BME280;3708;42.632;23.378;2023-07-22T10:50:54;94287.13;;;39.75;23.74
7335;BME280;3708;42.632;23.378;2023-07-22T10:53:28;94275.25;;;39.55;23.95
7335;BME280;3708;42.632;23.378;2023-07-22T10:56:12;94276.22;;;38.45;24.87
7335;BME280;3708;42.632;23.378;2023-07-22T10:58:58;94266.66;;;39.02;23.71
7335;BME280;3708;42.632;23.378;2023-07-22T11:01:31;94270.41;;;39.04;23.37
7335;BME280;3708;42.632;23.378;2023-07-22T11:04:22;94266.28;;;39.49;23.24
7335;BME280;3708;42.632;23.378;2023-07-22T11:06:57;94259.81;;;39.99;21.98
7335;BME280;3708;42.632;23.378;2023-07-22T11:09:38;94254.56;;;39.54;22.02
7335;BME280;3708;42.632;23.378;2023-07-22T11:12:09;94262.91;;;39.21;21.88
7335;BME280;3708;42.632;23.378;2023-07-22T11:14:47;94263.00;;;38.88;22.42
7335;BME280;3708;42.632;23.378;2023-07-22T11:17:15;94249.78;;;38.20;22.55
7335;BME280;3708;42.632;23.378;2023-07-22T11:19:44;94256.53;;;38.25;22.48
7335;BME280;3708;42.632;23.378;2023-07-22T11:22:11;94287.38;;;37.38;23.47
7335;BME280;3708;42.632;23.378;2023-07-22T11:24:38;94245.25;;;37.67;23.14
7335;BME280;3708;42.632;23.378;2023-07-22T11:27:07;94256.53;;;38.47;22.83
7335;BME280;3708;42.632;23.378;2023-07-22T11:29:35;94243.84;;;38.10;23.34
7335;BME280;3708;42.632;23.378;2023-07-22T11:32:03;94254.44;;;37.75;22.99
7335;BME280;3708;42.632;23.378;2023-07-22T11:34:30;94253.41;;;37.56;23.38
7335;BME280;3708;42.632;23.378;2023-07-22T11:36:58;94246.47;;;37.66;22.93
7335;BME280;3708;42.632;23.378;2023-07-22T11:39:26;94242.84;;;38.08;23.13
7335;BME280;3708;42.632;23.378;2023-07-22T11:41:58;94253.00;;;37.91;23.84
7335;BME280;3708;42.632;23.378;2023-07-22T11:44:27;94235.84;;;37.90;23.21
7335;BME280;3708;42.632;23.378;2023-07-22T11:46:58;94228.44;;;38.13;22.81
7335;BME280;3708;42.632;23.378;2023-07-22T11:49:27;94221.97;;;38.10;22.90
7335;BME280;3708;42.632;23.378;2023-07-22T11:51:55;94239.50;;;37.65;23.54
7335;BME280;3708;42.632;23.378;2023-07-22T11:54:24;94230.16;;;38.16;23.19
7335;BME280;3708;42.632;23.378;2023-07-22T11:56:51;94238.88;;;38.48;23.37
7335;BME280;3708;42.632;23.378;2023-07-22T11:59:32;94220.88;;;37.69;23.70
7335;BME280;3708;42.632;23.378;2023-07-22T12:02:00;94223.69;;;37.91;23.99
7335;BME280;3708;42.632;23.378;2023-07-22T12:04:26;94231.13;;;38.63;23.08
7335;BME280;3708;42.632;23.378;2023-07-22T12:06:53;94219.00;;;38.25;23.09
7335;BME280;3708;42.632;23.378;2023-07-22T12:09:20;94235.59;;;37.88;23.33
7335;BME280;3708;42.632;23.378;2023-07-22T12:11:55;94209.25;;;38.68;23.13
7335;BME280;3708;42.632;23.378;2023-07-22T12:14:22;94213.66;;;38.99;22.55
7335;BME280;3708;42.632;23.378;2023-07-22T12:16:54;94209.97;;;38.85;22.50
7335;BME280;3708;42.632;23.378;2023-07-22T12:19:22;94213.69;;;38.88;22.06
7335;BME280;3708;42.632;23.378;2023-07-22T12:21:49;94209.00;;;39.40;21.81
7335;BME280;3708;42.632;23.378;2023-07-22T12:24:15;94216.28;;;39.32;22.15
7335;BME280;3708;42.632;23.378;2023-07-22T12:26:42;94209.75;;;38.67;22.82
7335;BME280;3708;42.632;23.378;2023-07-22T12:29:10;94200.78;;;38.72;22.43
7335;BME280;3708;42.632;23.378;2023-07-22T12:31:37;94202.09;;;38.32;22.90
7335;BME280;3708;42.632;23.378;2023-07-22T12:34:04;94201.53;;;37.78;23.73
7335;BME280;3708;42.632;23.378;2023-07-22T12:36:31;94204.81;;;37.93;24.24
7335;BME280;3708;42.632;23.378;2023-07-22T12:38:58;94201.31;;;38.43;23.30
7335;BME280;3708;42.632;23.378;2023-07-22T12:41:25;94198.59;;;38.43;23.04
7335;BME280;3708;42.632;23.378;2023-07-22T12:43:52;94208.78;;;38.03;24.00
7335;BME280;3708;42.632;23.378;2023-07-22T12:46:20;94195.84;;;38.09;24.41
7335;BME280;3708;42.632;23.378;2023-07-22T12:48:47;94194.81;;;38.68;23.43
7335;BME280;3708;42.632;23.378;2023-07-22T12:51:14;94195.00;;;38.86;23.19
7335;BME280;3708;42.632;23.378;2023-07-22T12:53:41;94183.41;;;39.32;22.08
7335;BME280;3708;42.632;23.378;2023-07-22T12:56:08;94185.84;;;39.88;21.62
7335;BME280;3708;42.632;23.378;2023-07-22T12:58:35;94180.38;;;39.41;21.79
7335;BME280;3708;42.632;23.378;2023-07-22T13:01:01;94172.97;;;39.31;21.75
7335;BME280;3708;42.632;23.378;2023-07-22T13:03:30;94200.44;;;39.03;21.95
7335;BME280;3708;42.632;23.378;2023-07-22T13:05:56;94172.53;;;39.16;21.82
7335;BME280;3708;42.632;23.378;2023-07-22T13:08:23;94168.66;;;39.82;21.19
7335;BME280;3708;42.632;23.378;2023-07-22T13:10:50;94163.03;;;39.69;22.00
7335;BME280;3708;42.632;23.378;2023-07-22T13:13:17;94166.03;;;40.60;21.30